createdAt,value
2023-02-06T00:00:02.015Z,87.21
2023-02-06T00:05:00.440Z,87.12
2023-02-06T00:10:00.413Z,87.33
2023-02-06T00:15:00.551Z,86.94
2023-02-06T00:20:00.478Z,86.68
2023-02-06T00:25:01.106Z,86.98
2023-02-06T00:30:00.623Z,86.79
2023-02-06T00:35:00.428Z,87.03
2023-02-06T00:40:00.449Z,86.60
2023-02-06T00:45:00.460Z,86.76
2023-02-06T00:50:01.010Z,87.24
2023-02-06T00:55:01.122Z,87.23
2023-02-06T01:00:02.209Z,86.93
2023-02-06T01:05:00.554Z,87.17
2023-02-06T01:10:00.447Z,86.99
2023-02-06T01:15:00.548Z,87.26
2023-02-06T01:20:00.637Z,87.33
2023-02-06T01:25:00.643Z,87.67
2023-02-06T01:30:00.476Z,87.23
2023-02-06T01:35:00.418Z,87.06
2023-02-06T01:40:00.555Z,87.02
2023-02-06T01:45:20.304Z,87.07
2023-02-06T01:50:01.654Z,86.96
2023-02-06T01:55:03.758Z,87.18
2023-02-06T02:00:06.214Z,87.23
2023-02-06T02:05:02.629Z,87.11
2023-02-06T02:10:00.770Z,86.80
2023-02-06T02:15:01.015Z,86.90
2023-02-06T02:20:03.666Z,87.24
2023-02-06T02:25:17.806Z,86.95
2023-02-06T02:30:10.362Z,86.84
2023-02-06T02:35:16.719Z,86.85
2023-02-06T02:40:11.229Z,86.83
2023-02-06T02:45:11.085Z,86.85
2023-02-06T02:50:02.623Z,86.77
2023-02-06T02:55:00.441Z,86.44
2023-02-06T03:00:02.158Z,86.38
2023-02-06T03:05:06.678Z,86.53
2023-02-06T03:10:11.371Z,86.42
2023-02-06T03:15:08.406Z,86.36
2023-02-06T03:20:03.813Z,86.20
2023-02-06T03:25:02.971Z,86.18
2023-02-06T03:30:03.272Z,86.28
2023-02-06T03:35:15.203Z,86.49
2023-02-06T03:40:01.773Z,85.93
2023-02-06T03:45:04.982Z,86.44
2023-02-06T03:50:01.243Z,85.82
2023-02-06T03:55:05.207Z,86.10
2023-02-06T04:00:02.448Z,86.01
2023-02-06T04:05:00.422Z,85.69
2023-02-06T04:10:00.516Z,85.62
2023-02-06T04:15:00.619Z,85.60
2023-02-06T04:20:00.506Z,85.84
2023-02-06T04:25:00.814Z,85.94
2023-02-06T04:30:00.545Z,86.12
2023-02-06T04:35:00.475Z,86.14
2023-02-06T04:40:00.401Z,86.30
2023-02-06T04:45:00.483Z,86.65
2023-02-06T04:50:02.328Z,88.20
2023-02-06T04:55:00.427Z,88.01
2023-02-06T05:00:03.649Z,88.57
2023-02-06T05:05:00.433Z,88.16
2023-02-06T05:10:01.020Z,87.97
2023-02-06T05:15:00.513Z,87.82
2023-02-06T05:20:00.676Z,87.88
2023-02-06T05:25:00.539Z,87.86
2023-02-06T05:30:00.774Z,87.72
2023-02-06T05:35:00.423Z,87.55
2023-02-06T05:40:00.427Z,87.52
2023-02-06T05:45:00.740Z,87.56
2023-02-06T05:50:00.493Z,87.84
2023-02-06T05:55:00.490Z,87.95
2023-02-06T06:00:01.237Z,87.73
2023-02-06T06:05:00.480Z,87.60
2023-02-06T06:10:00.679Z,87.73
2023-02-06T06:15:00.491Z,87.68
2023-02-06T06:20:00.446Z,87.66
2023-02-06T06:25:00.580Z,87.76
2023-02-06T06:30:00.459Z,87.88
2023-02-06T06:35:00.428Z,87.81
2023-02-06T06:40:00.586Z,87.78
2023-02-06T06:45:00.545Z,87.68
2023-02-06T06:50:00.417Z,87.90
2023-02-06T06:55:00.560Z,87.90
2023-02-06T07:00:02.496Z,87.01
2023-02-06T07:05:00.591Z,87.68
2023-02-06T07:10:00.540Z,87.88
2023-02-06T07:15:00.537Z,87.99
2023-02-06T07:20:00.569Z,88.01
2023-02-06T07:25:00.884Z,88.03
2023-02-06T07:30:00.445Z,88.24
2023-02-06T07:35:00.398Z,88.29
2023-02-06T07:40:00.572Z,88.38
2023-02-06T07:45:00.440Z,88.41
2023-02-06T07:50:00.454Z,88.44
2023-02-06T07:55:00.615Z,88.65
2023-02-06T08:00:02.049Z,88.52
2023-02-06T08:05:00.423Z,88.59
2023-02-06T08:10:00.546Z,88.66
2023-02-06T08:15:00.429Z,88.70
2023-02-06T08:20:00.484Z,88.62
2023-02-06T08:25:00.655Z,88.80
2023-02-06T08:30:00.434Z,88.73
2023-02-06T08:35:00.750Z,89.14
2023-02-06T08:40:00.555Z,89.36
2023-02-06T08:45:00.462Z,89.09
2023-02-06T08:50:02.971Z,89.04
2023-02-06T08:55:00.479Z,88.66
2023-02-06T09:00:01.058Z,88.50
2023-02-06T09:05:00.426Z,88.39
2023-02-06T09:10:00.476Z,88.27
2023-02-06T09:15:00.417Z,88.04
2023-02-06T09:20:01.061Z,87.64
2023-02-06T09:25:00.698Z,87.26
2023-02-06T09:30:00.779Z,87.30
2023-02-06T09:35:00.410Z,87.06
2023-02-06T09:40:00.434Z,86.59
2023-02-06T09:45:06.034Z,86.14
2023-02-06T09:50:10.521Z,85.62
2023-02-06T09:55:20.311Z,85.25
2023-02-06T10:00:10.309Z,84.91
2023-02-06T10:05:18.810Z,84.50
2023-02-06T10:10:05.793Z,83.24
2023-02-06T10:15:07.952Z,82.28
2023-02-06T10:20:09.932Z,78.24
2023-02-06T10:25:11.408Z,76.05
2023-02-06T10:30:00.632Z,73.45
2023-02-06T10:35:17.378Z,66.09
2023-02-06T10:40:11.364Z,62.14
2023-02-06T10:45:18.415Z,63.51
2023-02-06T10:50:11.360Z,64.19
2023-02-06T10:55:12.665Z,62.97
2023-02-06T11:00:03.553Z,65.89
2023-02-06T11:05:18.060Z,68.77
2023-02-06T11:10:00.480Z,64.15
2023-02-06T11:15:07.166Z,59.24
2023-02-06T11:20:20.347Z,58.45
2023-02-06T11:25:06.630Z,56.80
2023-02-06T11:30:06.882Z,57.36
2023-02-06T11:35:06.397Z,52.89
2023-02-06T11:40:13.721Z,60.69
2023-02-06T11:45:20.342Z,53.86
2023-02-06T11:50:11.388Z,55.72
2023-02-06T11:55:00.441Z,57.12
2023-02-06T12:00:13.636Z,60.69
2023-02-06T12:05:05.927Z,57.28
2023-02-06T12:10:00.505Z,57.72
2023-02-06T12:15:29.456Z,54.96
2023-02-06T12:20:13.258Z,56.42
2023-02-06T12:25:03.133Z,58.52
2023-02-06T12:30:13.719Z,59.31
2023-02-06T12:35:14.749Z,58.51
2023-02-06T12:40:00.849Z,60.91
2023-02-06T12:45:17.743Z,58.99
2023-02-06T12:50:14.046Z,58.94
2023-02-06T12:55:13.876Z,58.65
2023-02-06T13:00:04.402Z,59.75
2023-02-06T13:05:01.090Z,61.07
2023-02-06T13:10:03.697Z,60.36
2023-02-06T13:15:04.974Z,60.86
2023-02-06T13:20:03.333Z,59.28
2023-02-06T13:25:01.035Z,59.83
2023-02-06T13:30:20.315Z,57.47
2023-02-06T13:35:12.771Z,60.33
2023-02-06T13:40:11.511Z,61.93
2023-02-06T13:45:02.830Z,61.08
2023-02-06T13:50:20.327Z,62.48
2023-02-06T13:55:10.611Z,62.11
2023-02-06T14:00:10.422Z,64.94
2023-02-06T14:05:05.167Z,63.44
2023-02-06T14:10:11.786Z,62.98
2023-02-06T14:15:03.716Z,62.81
2023-02-06T14:20:11.996Z,63.49
2023-02-06T14:25:09.652Z,63.50
2023-02-06T14:30:04.754Z,64.90
2023-02-06T14:35:20.317Z,63.61
2023-02-06T14:40:05.146Z,63.99
2023-02-06T14:45:04.107Z,62.36
2023-02-06T14:50:00.726Z,62.97
2023-02-06T14:55:00.420Z,61.22
2023-02-06T15:00:12.418Z,61.90
2023-02-06T15:05:02.438Z,63.35
2023-02-06T15:10:08.343Z,63.24
2023-02-06T15:15:19.210Z,62.99
2023-02-06T15:20:20.239Z,63.30
2023-02-06T15:25:08.096Z,63.02
2023-02-06T15:30:11.295Z,63.72
2023-02-06T15:35:01.099Z,63.90
2023-02-06T15:40:07.380Z,63.37
2023-02-06T15:45:00.646Z,64.85
2023-02-06T15:50:08.679Z,64.54
2023-02-06T15:55:00.946Z,65.83
2023-02-06T16:00:02.522Z,65.25
2023-02-06T16:05:02.545Z,65.52
2023-02-06T16:10:07.736Z,66.43
2023-02-06T16:15:03.537Z,66.86
2023-02-06T16:20:03.125Z,67.19
2023-02-06T16:25:13.161Z,67.43
2023-02-06T16:30:00.386Z,68.09
2023-02-06T16:35:00.338Z,68.46
2023-02-06T16:40:00.356Z,68.50
2023-02-06T16:45:06.219Z,67.53
2023-02-06T16:50:00.409Z,68.59
2023-02-06T16:55:00.613Z,68.71
2023-02-06T17:00:03.188Z,68.67
2023-02-06T17:05:00.446Z,68.93
2023-02-06T17:10:01.419Z,69.06
2023-02-06T17:15:00.420Z,69.29
2023-02-06T17:20:00.987Z,69.51
2023-02-06T17:25:00.355Z,69.87
2023-02-06T17:30:00.352Z,70.24
2023-02-06T17:35:00.348Z,70.68
2023-02-06T17:40:00.444Z,71.23
2023-02-06T17:45:00.349Z,71.84
2023-02-06T17:50:01.099Z,72.54
2023-02-06T17:55:00.546Z,72.94
2023-02-06T18:00:00.868Z,72.90
2023-02-06T18:05:00.438Z,73.25
2023-02-06T18:10:00.334Z,73.83
2023-02-06T18:15:00.380Z,74.14
2023-02-06T18:20:00.699Z,74.40
2023-02-06T18:25:00.344Z,74.45
2023-02-06T18:30:00.857Z,74.82
2023-02-06T18:35:00.389Z,74.75
2023-02-06T18:40:00.411Z,74.78
2023-02-06T18:45:03.188Z,75.49
2023-02-06T18:50:00.498Z,75.22
2023-02-06T18:55:00.591Z,75.75
2023-02-06T19:00:01.832Z,75.76
2023-02-06T19:05:01.000Z,75.86
2023-02-06T19:10:03.074Z,74.30
2023-02-06T19:15:00.377Z,76.43
2023-02-06T19:20:00.444Z,76.61
2023-02-06T19:25:00.717Z,76.17
2023-02-06T19:30:00.357Z,76.45
2023-02-06T19:35:00.404Z,76.94
2023-02-06T19:40:00.381Z,76.84
2023-02-06T19:45:00.364Z,76.91
2023-02-06T19:50:00.382Z,77.04
2023-02-06T19:55:00.429Z,77.55
2023-02-06T20:00:00.902Z,77.56
2023-02-06T20:05:02.582Z,77.50
2023-02-06T20:10:00.406Z,77.26
2023-02-06T20:15:00.592Z,77.20
2023-02-06T20:20:00.345Z,77.61
2023-02-06T20:25:00.374Z,77.35
2023-02-06T20:30:00.374Z,77.65
2023-02-06T20:35:00.332Z,78.00
2023-02-06T20:40:00.376Z,77.31
2023-02-06T20:45:00.367Z,77.63
2023-02-06T20:50:00.351Z,77.92
2023-02-06T20:55:00.877Z,77.79
2023-02-06T21:00:00.335Z,77.88
2023-02-06T21:05:00.410Z,78.21
2023-02-06T21:10:00.325Z,78.87
2023-02-06T21:15:00.357Z,79.08
2023-02-06T21:20:00.342Z,79.49
2023-02-06T21:25:00.346Z,79.12
2023-02-06T21:30:00.374Z,79.63
2023-02-06T21:35:00.415Z,79.89
2023-02-06T21:40:00.527Z,80.63
2023-02-06T21:45:00.424Z,80.28
2023-02-06T21:50:00.385Z,80.48
2023-02-06T21:55:00.371Z,80.21
2023-02-06T22:00:01.523Z,79.90
2023-02-06T22:05:00.393Z,80.57
2023-02-06T22:10:00.370Z,80.65
2023-02-06T22:15:00.388Z,81.03
2023-02-06T22:20:00.327Z,81.31
2023-02-06T22:25:00.355Z,80.93
2023-02-06T22:30:00.732Z,80.49
2023-02-06T22:35:00.603Z,80.79
2023-02-06T22:40:00.543Z,80.70
2023-02-06T22:45:00.848Z,81.13
2023-02-06T22:50:00.369Z,81.47
2023-02-06T22:55:01.100Z,80.62
2023-02-06T23:00:00.491Z,80.81
2023-02-06T23:05:00.365Z,80.67
2023-02-06T23:10:00.395Z,80.65
2023-02-06T23:15:00.397Z,80.39
2023-02-06T23:20:00.416Z,80.67
2023-02-06T23:25:00.648Z,80.55
2023-02-06T23:30:00.377Z,80.68
2023-02-06T23:35:00.354Z,80.73
2023-02-06T23:40:00.343Z,80.31
2023-02-06T23:45:00.724Z,80.45
2023-02-06T23:50:00.559Z,82.01
2023-02-06T23:55:00.489Z,81.63
